Time;durP1;ratioP1;P1;durP2;ratioP2;P2;SDS_P1;SDS_P2;PMS_P1;PMS_P2;Temp;Humidity;BMP_temperature;BMP_pressure;BME280_temperature;BME280_humidity;BME280_pressure;Samples;Min_cycle;Max_cycle;Signal;HPM_P1;HPM_P2
2022/03/08 00:00:41;;;;;;;9.32;7.05;;;;;;;;;;5010949;28;21620;-72
2022/03/08 00:03:07;;;;;;;11.90;7.00;;;;;;;;;;5010691;28;20038;-72
2022/03/08 00:05:33;;;;;;;9.30;5.85;;;;;;;;;;4994127;28;20079;-72
2022/03/08 00:08:00;;;;;;;9.57;7.00;;;;;;;;;;5009995;28;20582;-72
2022/03/08 00:10:26;;;;;;;13.55;7.63;;;;;;;;;;4992936;28;20071;-72
2022/03/08 00:12:53;;;;;;;11.98;8.00;;;;;;;;;;5012103;28;20032;-73
2022/03/08 00:15:21;;;;;;;12.02;7.38;;;;;;;;;;5012968;28;20026;-72
2022/03/08 00:17:47;;;;;;;15.20;8.05;;;;;;;;;;5015394;28;20036;-73
2022/03/08 00:20:14;;;;;;;13.15;8.00;;;;;;;;;;5012133;28;20046;-72
2022/03/08 00:22:41;;;;;;;11.55;8.13;;;;;;;;;;5011215;28;20037;-72
2022/03/08 00:25:08;;;;;;;11.85;9.20;;;;;;;;;;5012708;28;20060;-72
2022/03/08 00:27:34;;;;;;;13.00;7.97;;;;;;;;;;5010407;28;20029;-73
2022/03/08 00:30:00;;;;;;;12.25;9.05;;;;;;;;;;5010920;28;20030;-71
2022/03/08 00:32:26;;;;;;;12.85;9.25;;;;;;;;;;4992527;28;20030;-71
2022/03/08 00:34:52;;;;;;;14.52;9.98;;;;;;;;;;5011988;28;20033;-72
2022/03/08 00:37:19;;;;;;;12.23;8.55;;;;;;;;;;5009963;28;20566;-72
2022/03/08 00:39:46;;;;;;;13.32;9.75;;;;;;;;;;5010626;28;20038;-72
2022/03/08 00:42:12;;;;;;;19.20;12.98;;;;;;;;;;5009539;28;20096;-71
2022/03/08 00:44:38;;;;;;;18.10;10.30;;;;;;;;;;5011207;28;20026;-73
2022/03/08 00:47:05;;;;;;;14.18;9.15;;;;;;;;;;5009280;28;20041;-70
2022/03/08 00:49:31;;;;;;;18.60;11.10;;;;;;;;;;5010118;28;20031;-72
2022/03/08 00:51:57;;;;;;;19.77;13.65;;;;;;;;;;5008979;28;20037;-71
2022/03/08 00:54:23;;;;;;;24.10;13.27;;;;;;;;;;5010780;28;20120;-72
2022/03/08 00:56:49;;;;;;;19.00;13.10;;;;;;;;;;5010280;28;20412;-72
2022/03/08 00:59:15;;;;;;;18.30;12.07;;;;;;;;;;5009440;28;20026;-72
2022/03/08 01:01:41;;;;;;;20.27;12.40;;;;;;;;;;5009966;28;20034;-72
2022/03/08 01:04:07;;;;;;;25.30;12.50;;;;;;;;;;5011284;28;20041;-71
2022/03/08 01:06:34;;;;;;;19.33;13.02;;;;;;;;;;5009362;28;20104;-73
2022/03/08 01:09:01;;;;;;;26.58;16.20;;;;;;;;;;5011297;28;20361;-73
2022/03/08 01:11:27;;;;;;;21.83;13.52;;;;;;;;;;5009052;28;20053;-72
2022/03/08 01:13:54;;;;;;;22.80;15.70;;;;;;;;;;5009833;28;20503;-72
2022/03/08 01:16:20;;;;;;;26.35;16.50;;;;;;;;;;5010191;28;20471;-71
2022/03/08 01:18:47;;;;;;;17.45;13.63;;;;;;;;;;5014028;28;20478;-71
2022/03/08 01:21:14;;;;;;;18.10;13.55;;;;;;;;;;5008003;28;20499;-71
2022/03/08 01:23:41;;;;;;;21.75;14.98;;;;;;;;;;5007119;28;20133;-73
2022/03/08 01:26:07;;;;;;;20.70;14.88;;;;;;;;;;5009093;28;20033;-72
2022/03/08 01:28:34;;;;;;;20.98;13.35;;;;;;;;;;5005353;28;20495;-73
2022/03/08 01:31:00;;;;;;;21.52;14.38;;;;;;;;;;5008916;28;20022;-74
2022/03/08 01:33:26;;;;;;;18.55;11.80;;;;;;;;;;5009494;28;20041;-73
2022/03/08 01:35:52;;;;;;;26.38;13.88;;;;;;;;;;5010818;28;20037;-73
2022/03/08 01:38:18;;;;;;;19.55;12.00;;;;;;;;;;5010380;28;20104;-74
2022/03/08 01:40:45;;;;;;;24.13;14.80;;;;;;;;;;4997510;28;20083;-73
2022/03/08 01:43:11;;;;;;;24.70;14.35;;;;;;;;;;5008360;28;20022;-71
2022/03/08 01:45:37;;;;;;;21.42;13.45;;;;;;;;;;5011105;28;20543;-72
2022/03/08 01:48:03;;;;;;;19.13;12.93;;;;;;;;;;5009838;28;20026;-73
2022/03/08 01:50:30;;;;;;;27.25;14.35;;;;;;;;;;4994246;28;20022;-72
2022/03/08 01:52:56;;;;;;;20.10;11.77;;;;;;;;;;5009661;28;20045;-73
2022/03/08 01:55:22;;;;;;;25.83;15.65;;;;;;;;;;5009161;28;20049;-72
2022/03/08 01:57:49;;;;;;;27.30;15.40;;;;;;;;;;5009587;28;20388;-73
2022/03/08 02:00:17;;;;;;;24.77;15.85;;;;;;;;;;5009383;28;20037;-74
2022/03/08 02:02:43;;;;;;;27.35;16.58;;;;;;;;;;5009496;28;20476;-72
2022/03/08 02:05:11;;;;;;;27.92;15.10;;;;;;;;;;5011159;28;20040;-72
2022/03/08 02:07:37;;;;;;;22.33;15.20;;;;;;;;;;5011029;28;20033;-72
2022/03/08 02:10:04;;;;;;;23.88;15.38;;;;;;;;;;5010686;28;20036;-72
2022/03/08 02:12:30;;;;;;;22.17;13.27;;;;;;;;;;5010585;28;20037;-72
2022/03/08 02:14:56;;;;;;;25.05;14.65;;;;;;;;;;5007728;28;20402;-73
2022/03/08 02:17:22;;;;;;;21.42;14.10;;;;;;;;;;5006432;28;20022;-73
2022/03/08 02:19:48;;;;;;;19.33;13.93;;;;;;;;;;5008336;28;20119;-73
2022/03/08 02:22:14;;;;;;;18.05;13.50;;;;;;;;;;5011711;28;20080;-74
2022/03/08 02:24:40;;;;;;;21.02;14.57;;;;;;;;;;4991012;28;20658;-71
2022/03/08 02:27:08;;;;;;;22.70;14.65;;;;;;;;;;5009777;28;20034;-72
2022/03/08 02:29:34;;;;;;;21.88;14.82;;;;;;;;;;5008400;28;20108;-73
2022/03/08 02:32:00;;;;;;;25.55;16.52;;;;;;;;;;5007609;28;20025;-73
2022/03/08 02:34:26;;;;;;;17.10;12.27;;;;;;;;;;5006433;28;20109;-73
2022/03/08 02:36:56;;;;;;;28.38;14.27;;;;;;;;;;5009775;28;20034;-72
2022/03/08 02:39:22;;;;;;;21.38;14.27;;;;;;;;;;5007850;28;20034;-74
2022/03/08 02:41:48;;;;;;;24.40;13.90;;;;;;;;;;5009697;28;20030;-73
2022/03/08 02:44:14;;;;;;;27.92;15.38;;;;;;;;;;5009585;28;20026;-72
2022/03/08 02:46:40;;;;;;;22.83;15.23;;;;;;;;;;5010109;28;20166;-73
2022/03/08 02:49:07;;;;;;;24.65;16.20;;;;;;;;;;5007094;28;20026;-73
2022/03/08 02:51:33;;;;;;;26.27;13.75;;;;;;;;;;5009020;28;20028;-73
2022/03/08 02:53:59;;;;;;;27.55;15.95;;;;;;;;;;5008827;28;20443;-72
2022/03/08 02:56:25;;;;;;;23.45;14.77;;;;;;;;;;5013173;28;20041;-72
2022/03/08 02:58:51;;;;;;;25.15;14.32;;;;;;;;;;5012390;28;20408;-73
2022/03/08 03:01:17;;;;;;;25.90;13.73;;;;;;;;;;5013790;28;20446;-73
2022/03/08 03:03:43;;;;;;;19.38;13.95;;;;;;;;;;4993872;28;20033;-72
2022/03/08 03:06:09;;;;;;;24.67;14.60;;;;;;;;;;5012393;28;20030;-72
2022/03/08 03:08:35;;;;;;;21.65;14.15;;;;;;;;;;5013090;28;20018;-72
2022/03/08 03:11:01;;;;;;;27.15;16.63;;;;;;;;;;4994562;28;20030;-72
2022/03/08 03:13:27;;;;;;;26.92;15.73;;;;;;;;;;4989437;28;20113;-72
2022/03/08 03:15:53;;;;;;;25.00;16.33;;;;;;;;;;5007448;28;20040;-72
2022/03/08 03:18:19;;;;;;;25.30;16.50;;;;;;;;;;5012565;28;20065;-72
2022/03/08 03:20:45;;;;;;;25.17;15.10;;;;;;;;;;5009806;28;20026;-72
2022/03/08 03:23:12;;;;;;;19.42;12.27;;;;;;;;;;5009542;28;20548;-71
2022/03/08 03:25:38;;;;;;;25.63;15.63;;;;;;;;;;5012052;28;20480;-73
2022/03/08 03:28:04;;;;;;;31.83;17.95;;;;;;;;;;5008720;28;20022;-72
2022/03/08 03:30:30;;;;;;;24.98;16.48;;;;;;;;;;5009749;28;20036;-71
2022/03/08 03:32:56;;;;;;;24.08;14.55;;;;;;;;;;4989690;28;20089;-71
2022/03/08 03:35:22;;;;;;;25.10;16.83;;;;;;;;;;5011806;28;20136;-71
2022/03/08 03:37:48;;;;;;;30.95;17.65;;;;;;;;;;5012791;28;20034;-72
2022/03/08 03:40:15;;;;;;;24.38;15.35;;;;;;;;;;5009214;28;20377;-71
2022/03/08 03:42:41;;;;;;;25.15;13.80;;;;;;;;;;5005884;28;20037;-71
2022/03/08 03:45:08;;;;;;;23.08;14.27;;;;;;;;;;4996570;28;20053;-71
2022/03/08 03:47:34;;;;;;;23.38;13.85;;;;;;;;;;5012059;28;20105;-72
2022/03/08 03:50:01;;;;;;;22.83;13.95;;;;;;;;;;5013232;28;20048;-72
2022/03/08 03:52:27;;;;;;;24.00;15.20;;;;;;;;;;5014445;28;20062;-71
2022/03/08 03:54:53;;;;;;;28.98;17.08;;;;;;;;;;5017884;28;20042;-72
2022/03/08 03:57:19;;;;;;;27.13;15.65;;;;;;;;;;5016063;28;20042;-72
2022/03/08 03:59:45;;;;;;;28.08;17.02;;;;;;;;;;5014024;28;20026;-72
2022/03/08 04:02:12;;;;;;;26.13;15.85;;;;;;;;;;5011701;28;20474;-72
2022/03/08 04:04:38;;;;;;;29.10;18.15;;;;;;;;;;5012141;28;20014;-73
2022/03/08 04:07:04;;;;;;;23.42;15.70;;;;;;;;;;5010816;28;20974;-73
2022/03/08 04:09:30;;;;;;;32.72;16.13;;;;;;;;;;5011985;28;20022;-73
2022/03/08 04:11:56;;;;;;;28.48;16.20;;;;;;;;;;5010628;28;20022;-72
2022/03/08 04:14:23;;;;;;;27.98;16.17;;;;;;;;;;5016817;28;20717;-74
2022/03/08 04:16:49;;;;;;;26.80;14.82;;;;;;;;;;5010961;28;20034;-72
2022/03/08 04:19:15;;;;;;;29.95;16.08;;;;;;;;;;5011595;28;20026;-72
2022/03/08 04:21:41;;;;;;;29.08;17.27;;;;;;;;;;5010229;28;20034;-71
2022/03/08 04:24:07;;;;;;;27.95;17.67;;;;;;;;;;5008532;28;20121;-73
2022/03/08 04:26:33;;;;;;;28.95;18.02;;;;;;;;;;5012792;28;20036;-73
2022/03/08 04:28:59;;;;;;;26.35;17.05;;;;;;;;;;5010053;28;20132;-73
2022/03/08 04:31:25;;;;;;;32.45;18.10;;;;;;;;;;5011061;28;20057;-73
2022/03/08 04:33:52;;;;;;;28.13;17.80;;;;;;;;;;5012269;28;20034;-73
2022/03/08 04:36:18;;;;;;;32.58;16.80;;;;;;;;;;5011959;28;20037;-74
2022/03/08 04:38:44;;;;;;;34.58;18.58;;;;;;;;;;5010348;28;20034;-72
2022/03/08 04:41:10;;;;;;;30.67;18.08;;;;;;;;;;5010124;28;21609;-73
2022/03/08 04:43:36;;;;;;;32.40;17.48;;;;;;;;;;5010333;28;20104;-72
2022/03/08 04:46:02;;;;;;;31.48;17.33;;;;;;;;;;5011850;28;20038;-73
2022/03/08 04:48:28;;;;;;;31.60;19.13;;;;;;;;;;5007128;28;20121;-74
2022/03/08 04:50:54;;;;;;;27.15;16.95;;;;;;;;;;5005648;28;20036;-73
2022/03/08 04:53:20;;;;;;;32.20;16.65;;;;;;;;;;5007623;28;20109;-72
2022/03/08 04:55:46;;;;;;;29.10;18.08;;;;;;;;;;4993682;28;20092;-72
2022/03/08 04:58:12;;;;;;;29.65;17.63;;;;;;;;;;5011024;28;20029;-72
2022/03/08 05:00:39;;;;;;;29.50;20.08;;;;;;;;;;5010351;28;20034;-73
2022/03/08 05:03:05;;;;;;;29.77;18.35;;;;;;;;;;5007539;28;20487;-73
2022/03/08 05:05:33;;;;;;;32.47;18.48;;;;;;;;;;5009674;28;20040;-71
2022/03/08 05:07:59;;;;;;;26.33;15.65;;;;;;;;;;5010861;28;20018;-73
2022/03/08 05:10:26;;;;;;;25.10;15.60;;;;;;;;;;5010611;28;20045;-73
2022/03/08 05:12:52;;;;;;;31.17;18.70;;;;;;;;;;5009415;28;20038;-73
2022/03/08 05:15:18;;;;;;;30.23;18.38;;;;;;;;;;5009957;28;20030;-74
2022/03/08 05:17:44;;;;;;;32.75;18.67;;;;;;;;;;5008085;28;20022;-74
2022/03/08 05:20:11;;;;;;;28.42;16.80;;;;;;;;;;5010136;28;20038;-73
2022/03/08 05:22:37;;;;;;;25.23;15.85;;;;;;;;;;5010222;28;20099;-72
2022/03/08 05:25:04;;;;;;;23.17;13.80;;;;;;;;;;5010307;28;20088;-72
2022/03/08 05:27:30;;;;;;;30.25;17.42;;;;;;;;;;5009806;28;20030;-74
2022/03/08 05:29:56;;;;;;;29.50;16.83;;;;;;;;;;5009765;28;20038;-74
2022/03/08 05:32:22;;;;;;;26.17;15.43;;;;;;;;;;5009360;28;20450;-73
2022/03/08 05:34:48;;;;;;;27.85;17.15;;;;;;;;;;5010873;28;20026;-73
2022/03/08 05:37:14;;;;;;;34.75;17.83;;;;;;;;;;5010264;28;20389;-73
2022/03/08 05:39:41;;;;;;;31.48;16.30;;;;;;;;;;5008370;28;20059;-72
2022/03/08 05:42:07;;;;;;;32.00;17.17;;;;;;;;;;5004313;28;20026;-73
2022/03/08 05:44:33;;;;;;;27.95;16.67;;;;;;;;;;4993250;28;20369;-73
2022/03/08 05:46:59;;;;;;;30.92;17.38;;;;;;;;;;5009618;28;20010;-72
2022/03/08 05:49:25;;;;;;;29.38;18.65;;;;;;;;;;5010409;28;20022;-72
2022/03/08 05:51:51;;;;;;;26.80;16.83;;;;;;;;;;5009520;28;20024;-71
2022/03/08 05:54:17;;;;;;;30.15;17.10;;;;;;;;;;5002229;28;20723;-72
2022/03/08 05:56:44;;;;;;;30.65;16.85;;;;;;;;;;5009183;28;20044;-74
2022/03/08 05:59:10;;;;;;;26.38;15.55;;;;;;;;;;5009352;28;20033;-73
2022/03/08 06:01:36;;;;;;;28.65;15.82;;;;;;;;;;5010095;28;20480;-72
2022/03/08 06:04:02;;;;;;;31.35;16.55;;;;;;;;;;5008318;28;20030;-73
2022/03/08 06:06:28;;;;;;;30.48;17.60;;;;;;;;;;5009404;28;20096;-72
2022/03/08 06:08:54;;;;;;;28.55;16.67;;;;;;;;;;5008616;28;20033;-73
2022/03/08 06:11:20;;;;;;;33.13;17.55;;;;;;;;;;5009158;28;20017;-72
2022/03/08 06:13:46;;;;;;;29.20;17.05;;;;;;;;;;5009089;28;20061;-73
2022/03/08 06:16:13;;;;;;;25.55;16.08;;;;;;;;;;5006887;28;20065;-73
2022/03/08 06:18:40;;;;;;;31.60;17.45;;;;;;;;;;5005045;28;20395;-71
2022/03/08 06:21:06;;;;;;;31.48;18.40;;;;;;;;;;4990687;28;20030;-72
2022/03/08 06:23:33;;;;;;;30.02;17.55;;;;;;;;;;5008851;28;20049;-72
2022/03/08 06:25:59;;;;;;;26.17;17.10;;;;;;;;;;5008419;28;20033;-72
2022/03/08 06:28:25;;;;;;;28.50;16.25;;;;;;;;;;5007371;28;20045;-72
2022/03/08 06:30:51;;;;;;;32.72;18.17;;;;;;;;;;5008057;28;20021;-72
2022/03/08 06:33:17;;;;;;;31.60;19.02;;;;;;;;;;5006050;28;20053;-72
2022/03/08 06:35:44;;;;;;;32.08;17.70;;;;;;;;;;5008308;28;20503;-72
2022/03/08 06:38:10;;;;;;;30.23;17.83;;;;;;;;;;5007697;28;20026;-73
2022/03/08 06:40:36;;;;;;;28.05;15.52;;;;;;;;;;5009171;28;20498;-73
2022/03/08 06:43:02;;;;;;;31.15;18.55;;;;;;;;;;5007941;28;20479;-73
2022/03/08 06:45:28;;;;;;;26.95;15.38;;;;;;;;;;5008243;28;20084;-72
2022/03/08 06:47:54;;;;;;;25.25;16.38;;;;;;;;;;5007023;28;20040;-72
2022/03/08 06:50:20;;;;;;;29.35;18.35;;;;;;;;;;4991052;28;20029;-73
2022/03/08 06:52:46;;;;;;;28.65;17.60;;;;;;;;;;4997553;28;20033;-71
2022/03/08 06:55:13;;;;;;;28.30;17.30;;;;;;;;;;5008975;28;20054;-73
2022/03/08 06:57:39;;;;;;;24.90;15.75;;;;;;;;;;5010593;28;20042;-72
2022/03/08 07:00:07;;;;;;;28.10;16.73;;;;;;;;;;4988827;28;20022;-73
2022/03/08 07:02:33;;;;;;;28.52;14.18;;;;;;;;;;5009191;28;20028;-71
2022/03/08 07:04:59;;;;;;;28.45;16.63;;;;;;;;;;5008736;28;20030;-73
2022/03/08 07:07:25;;;;;;;22.33;13.45;;;;;;;;;;5004799;28;20034;-73
2022/03/08 07:09:52;;;;;;;23.60;15.23;;;;;;;;;;5009256;28;20093;-73
2022/03/08 07:12:18;;;;;;;32.08;17.70;;;;;;;;;;4999518;28;20114;-73
2022/03/08 07:14:44;;;;;;;29.77;17.60;;;;;;;;;;5005985;28;20041;-72
2022/03/08 07:17:10;;;;;;;35.42;19.35;;;;;;;;;;5007289;28;20519;-71
2022/03/08 07:19:36;;;;;;;30.88;16.00;;;;;;;;;;5010153;28;20048;-72
2022/03/08 07:22:02;;;;;;;40.72;19.70;;;;;;;;;;4990361;28;20038;-73
2022/03/08 07:24:28;;;;;;;31.80;16.92;;;;;;;;;;4990720;28;20073;-73
2022/03/08 07:26:54;;;;;;;30.50;17.27;;;;;;;;;;4990639;28;20026;-72
2022/03/08 07:29:20;;;;;;;28.27;15.20;;;;;;;;;;5008384;28;20033;-72
2022/03/08 07:31:46;;;;;;;24.70;15.38;;;;;;;;;;5007471;28;20022;-73
2022/03/08 07:34:14;;;;;;;28.58;17.77;;;;;;;;;;5006578;28;20034;-74
2022/03/08 07:36:40;;;;;;;32.40;17.00;;;;;;;;;;4989157;28;20037;-73
2022/03/08 07:39:06;;;;;;;30.52;16.83;;;;;;;;;;5006634;28;20103;-73
2022/03/08 07:41:33;;;;;;;29.63;16.65;;;;;;;;;;5007914;28;20030;-73
2022/03/08 07:44:01;;;;;;;27.25;15.40;;;;;;;;;;5013447;28;20041;-73
2022/03/08 07:46:27;;;;;;;27.88;16.92;;;;;;;;;;5012840;28;20022;-73
2022/03/08 07:48:53;;;;;;;36.53;18.52;;;;;;;;;;5013154;28;20476;-73
2022/03/08 07:51:19;;;;;;;29.80;17.08;;;;;;;;;;5008407;28;20026;-72
2022/03/08 07:53:45;;;;;;;29.55;16.42;;;;;;;;;;4989366;28;20034;-73
2022/03/08 07:56:11;;;;;;;39.60;19.48;;;;;;;;;;5008510;28;20038;-72
2022/03/08 07:58:40;;;;;;;35.15;17.42;;;;;;;;;;5013262;28;20026;-72
2022/03/08 08:01:06;;;;;;;37.80;17.55;;;;;;;;;;5010450;28;20029;-72
2022/03/08 08:03:32;;;;;;;34.80;17.63;;;;;;;;;;4992374;28;20124;-72
2022/03/08 08:05:58;;;;;;;35.30;20.33;;;;;;;;;;5012800;28;20017;-72
2022/03/08 08:08:25;;;;;;;39.33;17.98;;;;;;;;;;4991402;28;20034;-71
2022/03/08 08:10:51;;;;;;;31.48;17.02;;;;;;;;;;5011640;28;20092;-71
2022/03/08 08:13:17;;;;;;;28.48;17.42;;;;;;;;;;5009848;28;20041;-73
2022/03/08 08:15:43;;;;;;;32.90;16.77;;;;;;;;;;5011455;28;20092;-72
2022/03/08 08:18:09;;;;;;;28.55;17.08;;;;;;;;;;5012351;28;20033;-73
2022/03/08 08:20:35;;;;;;;27.70;16.23;;;;;;;;;;5012256;28;20109;-72
2022/03/08 08:23:01;;;;;;;33.33;17.45;;;;;;;;;;5009796;28;20038;-73
2022/03/08 08:25:27;;;;;;;31.02;15.93;;;;;;;;;;5011609;28;20053;-72
2022/03/08 08:27:53;;;;;;;30.42;16.95;;;;;;;;;;5010214;28;20472;-72
2022/03/08 08:30:19;;;;;;;34.25;19.27;;;;;;;;;;5009024;28;20030;-72
2022/03/08 08:32:46;;;;;;;29.73;16.55;;;;;;;;;;5011033;28;20033;-73
2022/03/08 08:35:12;;;;;;;30.20;15.50;;;;;;;;;;5008362;28;20100;-71
2022/03/08 08:37:39;;;;;;;31.35;17.25;;;;;;;;;;5012165;28;20485;-72
2022/03/08 08:40:05;;;;;;;33.30;17.05;;;;;;;;;;5011508;28;20026;-74
2022/03/08 08:42:31;;;;;;;29.80;17.58;;;;;;;;;;5012110;28;20038;-73
2022/03/08 08:44:58;;;;;;;26.77;15.00;;;;;;;;;;5009721;28;20113;-73
2022/03/08 08:47:24;;;;;;;28.45;14.45;;;;;;;;;;5012233;28;20064;-73
2022/03/08 08:49:50;;;;;;;32.70;16.92;;;;;;;;;;5009658;28;20054;-74
2022/03/08 08:52:16;;;;;;;35.95;18.40;;;;;;;;;;5010815;28;20057;-73
2022/03/08 08:54:42;;;;;;;35.15;19.50;;;;;;;;;;5011746;28;20048;-72
2022/03/08 08:57:08;;;;;;;35.00;19.23;;;;;;;;;;5008375;28;20065;-73
2022/03/08 08:59:34;;;;;;;32.65;18.13;;;;;;;;;;5007783;28;20021;-72
2022/03/08 09:02:01;;;;;;;34.15;17.80;;;;;;;;;;5001823;28;20041;-73
2022/03/08 09:04:27;;;;;;;32.30;17.45;;;;;;;;;;5005194;28;20132;-73
2022/03/08 09:06:53;;;;;;;34.00;17.88;;;;;;;;;;5004366;28;20026;-75
2022/03/08 09:09:19;;;;;;;28.23;16.20;;;;;;;;;;5002845;28;20524;-73
2022/03/08 09:11:45;;;;;;;27.67;13.98;;;;;;;;;;5005478;28;20069;-74
2022/03/08 09:14:11;;;;;;;33.85;15.77;;;;;;;;;;5005723;28;20488;-75
2022/03/08 09:16:38;;;;;;;29.10;16.98;;;;;;;;;;5009949;28;20033;-73
2022/03/08 09:19:04;;;;;;;32.83;16.00;;;;;;;;;;5011180;28;20034;-74
2022/03/08 09:21:30;;;;;;;34.92;15.50;;;;;;;;;;4981221;28;20031;-74
2022/03/08 09:23:56;;;;;;;29.45;15.82;;;;;;;;;;5007812;28;20050;-73
2022/03/08 09:26:22;;;;;;;29.52;16.05;;;;;;;;;;5003321;28;20040;-74
2022/03/08 09:28:48;;;;;;;28.25;14.65;;;;;;;;;;4986441;28;20728;-74
2022/03/08 09:31:14;;;;;;;31.27;15.00;;;;;;;;;;4990345;28;20034;-73
2022/03/08 09:33:41;;;;;;;26.15;15.73;;;;;;;;;;4989610;28;20057;-74
2022/03/08 09:36:08;;;;;;;26.15;15.27;;;;;;;;;;5010768;28;20045;-75
2022/03/08 09:38:34;;;;;;;27.90;15.38;;;;;;;;;;4997107;28;20026;-75
2022/03/08 09:41:02;;;;;;;27.45;14.50;;;;;;;;;;5015922;28;20033;-74
2022/03/08 09:43:29;;;;;;;32.47;17.85;;;;;;;;;;5010883;28;20480;-73
2022/03/08 09:45:55;;;;;;;25.27;16.38;;;;;;;;;;5007639;28;20026;-74
2022/03/08 09:48:22;;;;;;;30.15;15.48;;;;;;;;;;5010509;28;20106;-74
2022/03/08 09:50:48;;;;;;;24.50;14.60;;;;;;;;;;5010608;28;20084;-74
2022/03/08 09:53:15;;;;;;;24.58;14.02;;;;;;;;;;5011364;28;20048;-74
2022/03/08 09:55:41;;;;;;;24.52;14.43;;;;;;;;;;5009198;28;20041;-76
2022/03/08 09:58:07;;;;;;;19.13;12.50;;;;;;;;;;5009311;28;20030;-74
2022/03/08 10:00:33;;;;;;;33.55;15.32;;;;;;;;;;5005988;28;20030;-74
2022/03/08 10:03:00;;;;;;;30.30;15.57;;;;;;;;;;5009989;28;20125;-74
2022/03/08 10:05:28;;;;;;;31.40;15.10;;;;;;;;;;5010057;28;20484;-74
2022/03/08 10:08:03;;;;;;;24.00;14.10;;;;;;;;;;5009089;28;20032;-73
2022/03/08 10:10:32;;;;;;;27.02;15.68;;;;;;;;;;5009095;28;20037;-73
2022/03/08 10:12:59;;;;;;;25.85;14.50;;;;;;;;;;5010071;28;20022;-74
2022/03/08 10:15:25;;;;;;;24.10;12.95;;;;;;;;;;5009874;28;20496;-73
2022/03/08 10:17:51;;;;;;;24.70;15.45;;;;;;;;;;5007411;28;20038;-74
2022/03/08 10:20:28;;;;;;;25.23;13.85;;;;;;;;;;5010778;28;20025;-73
2022/03/08 10:22:54;;;;;;;18.88;12.02;;;;;;;;;;5005959;28;20133;-74
2022/03/08 10:25:25;;;;;;;21.75;11.50;;;;;;;;;;5011734;28;20030;-74
2022/03/08 10:27:51;;;;;;;28.58;12.98;;;;;;;;;;5006572;28;20022;-73
2022/03/08 10:30:17;;;;;;;27.30;13.57;;;;;;;;;;4992680;28;20033;-74
2022/03/08 10:32:43;;;;;;;29.65;14.80;;;;;;;;;;5009902;28;20038;-73
2022/03/08 10:35:10;;;;;;;26.98;14.32;;;;;;;;;;5009548;28;20026;-73
2022/03/08 10:37:38;;;;;;;31.65;15.30;;;;;;;;;;5006283;28;20053;-74
2022/03/08 10:40:06;;;;;;;23.02;12.55;;;;;;;;;;5008680;28;20014;-74
2022/03/08 10:42:36;;;;;;;20.40;12.30;;;;;;;;;;5005639;28;20103;-75
2022/03/08 10:45:16;;;;;;;31.63;16.38;;;;;;;;;;5010134;28;20107;-73
2022/03/08 10:47:44;;;;;;;27.27;14.57;;;;;;;;;;5011585;28;20034;-74
2022/03/08 10:50:11;;;;;;;27.15;13.10;;;;;;;;;;5013819;28;20041;-75
2022/03/08 10:52:38;;;;;;;25.25;13.30;;;;;;;;;;4993949;28;20380;-74
2022/03/08 10:55:11;;;;;;;27.88;13.48;;;;;;;;;;5011200;28;20030;-74
2022/03/08 10:57:38;;;;;;;25.75;12.63;;;;;;;;;;5011373;28;20024;-75
2022/03/08 11:00:09;;;;;;;24.50;13.10;;;;;;;;;;5008536;28;20116;-75
2022/03/08 11:02:36;;;;;;;20.35;12.45;;;;;;;;;;5008673;28;20133;-75
2022/03/08 11:05:09;;;;;;;20.13;11.75;;;;;;;;;;5008585;28;20105;-74
2022/03/08 11:07:36;;;;;;;21.10;11.50;;;;;;;;;;5006175;28;20022;-74
2022/03/08 11:10:03;;;;;;;21.63;12.93;;;;;;;;;;5008655;28;20109;-74
2022/03/08 11:12:29;;;;;;;22.60;12.43;;;;;;;;;;5010776;28;20133;-75
2022/03/08 11:14:55;;;;;;;21.05;12.30;;;;;;;;;;5009986;28;20130;-73
2022/03/08 11:17:23;;;;;;;16.95;11.10;;;;;;;;;;5013628;28;20385;-77
2022/03/08 11:19:50;;;;;;;23.13;10.73;;;;;;;;;;5013511;28;20041;-75
2022/03/08 11:22:19;;;;;;;19.48;11.52;;;;;;;;;;5014889;28;20099;-75
2022/03/08 11:24:46;;;;;;;18.60;11.02;;;;;;;;;;5014959;28;20038;-74
2022/03/08 11:27:13;;;;;;;14.63;9.48;;;;;;;;;;5014314;28;20120;-74
2022/03/08 11:29:40;;;;;;;18.77;11.18;;;;;;;;;;5012533;28;20143;-74
2022/03/08 11:32:07;;;;;;;20.35;10.00;;;;;;;;;;5012710;28;20487;-75
2022/03/08 11:34:34;;;;;;;14.60;9.80;;;;;;;;;;5010532;28;20079;-74
2022/03/08 11:37:20;;;;;;;12.38;8.27;;;;;;;;;;4985008;28;20026;-73
2022/03/08 11:40:04;;;;;;;19.00;9.40;;;;;;;;;;5010335;28;20103;-73
2022/03/08 11:42:32;;;;;;;19.13;9.32;;;;;;;;;;5015560;28;20047;-74
2022/03/08 11:44:59;;;;;;;14.73;8.23;;;;;;;;;;5013453;28;20439;-73
2022/03/08 11:47:35;;;;;;;14.15;8.80;;;;;;;;;;5009494;28;20164;-73
2022/03/08 11:50:01;;;;;;;15.18;9.05;;;;;;;;;;5009231;28;20262;-73
2022/03/08 11:52:30;;;;;;;17.20;10.65;;;;;;;;;;5009637;28;20034;-73
2022/03/08 11:54:56;;;;;;;16.27;10.27;;;;;;;;;;5011721;28;20042;-73
2022/03/08 11:57:41;;;;;;;15.20;9.00;;;;;;;;;;5013554;28;20092;-73
2022/03/08 12:00:21;;;;;;;15.90;9.90;;;;;;;;;;5012223;28;20428;-75
2022/03/08 12:02:48;;;;;;;13.52;8.60;;;;;;;;;;5011749;28;20111;-73
2022/03/08 12:05:32;;;;;;;10.88;7.40;;;;;;;;;;5010053;28;20049;-73
2022/03/08 12:07:58;;;;;;;17.23;6.82;;;;;;;;;;5012226;28;20029;-74
2022/03/08 12:10:27;;;;;;;8.10;5.47;;;;;;;;;;5011184;28;20432;-74
2022/03/08 12:12:54;;;;;;;10.63;5.78;;;;;;;;;;5008249;28;20049;-73
2022/03/08 12:15:21;;;;;;;9.32;5.32;;;;;;;;;;5007543;28;20455;-74
2022/03/08 12:18:05;;;;;;;10.30;5.95;;;;;;;;;;5012629;28;20095;-73
2022/03/08 12:20:31;;;;;;;11.85;6.25;;;;;;;;;;5010942;28;20130;-74
2022/03/08 12:23:10;;;;;;;14.88;6.57;;;;;;;;;;5012532;28;20054;-74
2022/03/08 12:25:36;;;;;;;10.52;5.97;;;;;;;;;;5012455;28;20026;-74
2022/03/08 12:28:02;;;;;;;9.85;5.85;;;;;;;;;;5011184;28;20033;-72
2022/03/08 12:30:39;;;;;;;10.38;6.63;;;;;;;;;;4994093;28;20472;-74
2022/03/08 12:33:05;;;;;;;8.80;5.82;;;;;;;;;;5011549;28;20025;-73
2022/03/08 12:35:31;;;;;;;14.50;5.57;;;;;;;;;;5010426;28;20033;-74
2022/03/08 12:38:04;;;;;;;8.77;5.85;;;;;;;;;;5009301;28;20424;-73
2022/03/08 12:40:32;;;;;;;8.95;4.78;;;;;;;;;;5008354;28;20114;-74
2022/03/08 12:43:00;;;;;;;7.97;5.20;;;;;;;;;;5010841;28;20491;-73
2022/03/08 12:45:30;;;;;;;5.95;4.10;;;;;;;;;;5003527;28;20054;-73
2022/03/08 12:47:59;;;;;;;7.18;3.90;;;;;;;;;;5008183;28;20523;-74
2022/03/08 12:50:28;;;;;;;5.90;3.72;;;;;;;;;;4993196;28;20033;-75
2022/03/08 12:53:03;;;;;;;5.22;4.10;;;;;;;;;;5010112;28;20143;-74
2022/03/08 12:55:30;;;;;;;5.18;3.10;;;;;;;;;;5010193;28;20034;-75
2022/03/08 12:58:02;;;;;;;5.07;3.55;;;;;;;;;;5009333;28;20028;-75
2022/03/08 13:00:28;;;;;;;4.95;3.08;;;;;;;;;;5010166;28;20080;-74
2022/03/08 13:02:54;;;;;;;4.93;3.17;;;;;;;;;;4992670;28;20029;-74
2022/03/08 13:05:31;;;;;;;6.45;4.15;;;;;;;;;;5007911;28;20038;-74
2022/03/08 13:07:57;;;;;;;7.85;3.92;;;;;;;;;;5010263;28;20034;-74
2022/03/08 13:10:24;;;;;;;4.03;3.53;;;;;;;;;;5011797;28;20435;-72
2022/03/08 13:12:59;;;;;;;4.05;3.10;;;;;;;;;;5011131;28;20494;-73
2022/03/08 13:15:26;;;;;;;7.05;3.45;;;;;;;;;;5009745;28;20487;-72
2022/03/08 13:17:56;;;;;;;3.83;2.72;;;;;;;;;;4994052;28;20045;-73
2022/03/08 13:20:22;;;;;;;5.55;3.80;;;;;;;;;;5012588;28;20084;-73
2022/03/08 13:22:48;;;;;;;6.68;3.95;;;;;;;;;;4993173;28;20092;-73
2022/03/08 13:25:14;;;;;;;5.10;3.53;;;;;;;;;;5011089;28;20117;-73
2022/03/08 13:27:53;;;;;;;8.50;4.68;;;;;;;;;;5011116;28;20045;-74
2022/03/08 13:30:21;;;;;;;10.25;4.45;;;;;;;;;;4986607;28;20141;-74
2022/03/08 13:32:47;;;;;;;8.18;3.63;;;;;;;;;;5007889;28;20030;-73
2022/03/08 13:35:13;;;;;;;11.63;4.47;;;;;;;;;;5007682;28;20025;-73
2022/03/08 13:37:47;;;;;;;13.50;5.18;;;;;;;;;;4991107;28;20022;-73
2022/03/08 13:40:31;;;;;;;12.30;3.15;;;;;;;;;;4990039;28;20041;-73
2022/03/08 13:42:57;;;;;;;8.32;3.38;;;;;;;;;;5006319;28;20068;-74
2022/03/08 13:45:24;;;;;;;5.82;2.55;;;;;;;;;;4994906;28;20029;-75
2022/03/08 13:47:55;;;;;;;5.20;2.20;;;;;;;;;;4997676;28;20459;-73
2022/03/08 13:50:24;;;;;;;5.15;2.50;;;;;;;;;;5015853;28;20029;-73
2022/03/08 13:52:54;;;;;;;6.10;2.40;;;;;;;;;;5016477;28;20045;-74
2022/03/08 13:55:27;;;;;;;5.93;2.20;;;;;;;;;;5010990;28;20088;-73
2022/03/08 13:57:57;;;;;;;7.05;2.08;;;;;;;;;;5010773;28;20033;-73
2022/03/08 14:00:27;;;;;;;5.55;2.60;;;;;;;;;;5009989;28;20053;-74
2022/03/08 14:02:55;;;;;;;7.50;3.45;;;;;;;;;;5007912;28;20058;-74
2022/03/08 14:05:21;;;;;;;10.95;3.25;;;;;;;;;;5008983;28;20022;-74
2022/03/08 14:07:54;;;;;;;7.00;2.80;;;;;;;;;;5011960;28;20026;-73
2022/03/08 14:10:20;;;;;;;8.07;2.78;;;;;;;;;;5016571;28;20036;-73
2022/03/08 14:12:47;;;;;;;7.47;3.20;;;;;;;;;;5015360;28;20030;-73
2022/03/08 14:15:13;;;;;;;15.32;7.25;;;;;;;;;;5017149;28;20037;-71
2022/03/08 14:17:39;;;;;;;7.13;3.75;;;;;;;;;;4999920;28;20022;-73
2022/03/08 14:20:16;;;;;;;12.93;4.05;;;;;;;;;;5021549;28;20081;-73